Woking, Canada
Current Conditions -  °F | °C
As of 2:00 AM on Wednesday 22 Oct 2014 (Local Time) from CYQU Reporting Station
Broken Clouds Broken Clouds  
Wind Chill: 34°   Ceiling: 21000
Heat Index: 39°   Visibility: 25mi
Dew Point: 34°   Wind: 8mph
Humidity: 81%   Direction: 90°E
Pressure: 29.56"   Gusts: NA
Location:  55.6°N, 118.77°W
Report Text: CYQU 220800Z 09007KT 25SM SCT150 BKN210 04/01 A2956 RMK AC3CI3 SLP025
Loading
Personal Weather Stations






























Interactive Weather Map
Tropical Storm Tracking
New forecast layout! Learn more

10-Day Weather Forecast

Advertisements
Track Severe Weather on mobile